Time;durP1;ratioP1;P1;durP2;ratioP2;P2;SDS_P1;SDS_P2;PMS_P1;PMS_P2;Temp;Humidity;BMP_temperature;BMP_pressure;BME280_temperature;BME280_humidity;BME280_pressure;Samples;Min_cycle;Max_cycle;Signal;HPM_P1;HPM_P2
2023/12/13 00:01:01;;;;;;;;;7.00;5.00;;;;;;;;5096400;27;47179;-78
2023/12/13 00:03:26;;;;;;;;;3.67;3.67;;;;;;;;5080645;27;45214;-78
2023/12/13 00:05:51;;;;;;;;;4.00;3.00;;;;;;;;5080980;28;45211;-77
2023/12/13 00:08:19;;;;;;;;;6.75;3.00;;;;;;;;5096035;27;45818;-77
2023/12/13 00:10:44;;;;;;;;;4.67;4.33;;;;;;;;5080436;27;47120;-77
2023/12/13 00:13:10;;;;;;;;;4.67;4.00;;;;;;;;5096107;27;45419;-77
2023/12/13 00:15:35;;;;;;;;;3.00;2.67;;;;;;;;5080451;27;45602;-76
2023/12/13 00:18:00;;;;;;;;;3.00;3.00;;;;;;;;5096087;27;47350;-77
2023/12/13 00:20:25;;;;;;;;;5.67;4.33;;;;;;;;5096103;27;48015;-76
2023/12/13 00:22:51;;;;;;;;;3.00;3.00;;;;;;;;5079518;27;45432;-76
2023/12/13 00:25:16;;;;;;;;;4.33;4.33;;;;;;;;5080575;27;45450;-76
2023/12/13 00:27:41;;;;;;;;;3.33;3.00;;;;;;;;5080155;27;45389;-76
2023/12/13 00:30:06;;;;;;;;;3.00;3.00;;;;;;;;5080294;28;46076;-76
2023/12/13 00:32:32;;;;;;;;;4.00;3.00;;;;;;;;5095583;27;45326;-77
2023/12/13 00:34:57;;;;;;;;;4.00;4.00;;;;;;;;5080392;27;45349;-77
2023/12/13 00:37:23;;;;;;;;;4.00;3.00;;;;;;;;5080285;27;45642;-77
2023/12/13 00:39:48;;;;;;;;;2.00;2.00;;;;;;;;5095710;27;47106;-76
2023/12/13 00:42:13;;;;;;;;;2.33;2.33;;;;;;;;5079921;27;45446;-76
2023/12/13 00:44:39;;;;;;;;;3.33;3.00;;;;;;;;5079805;27;45224;-76
2023/12/13 00:47:04;;;;;;;;;3.00;2.00;;;;;;;;5079260;28;45494;-76
2023/12/13 00:49:29;;;;;;;;;3.67;3.00;;;;;;;;5079181;28;45538;-77
2023/12/13 00:51:54;;;;;;;;;3.00;3.00;;;;;;;;5080155;28;45331;-77
2023/12/13 00:54:19;;;;;;;;;2.00;2.00;;;;;;;;5080011;28;45233;-77
2023/12/13 00:56:44;;;;;;;;;3.00;2.00;;;;;;;;5079838;28;46497;-77
2023/12/13 00:59:10;;;;;;;;;2.00;2.00;;;;;;;;5079809;27;45275;-76
2023/12/13 01:01:41;;;;;;;;;2.00;2.00;;;;;;;;5079728;27;45329;-77
2023/12/13 01:04:06;;;;;;;;;2.33;1.00;;;;;;;;5095393;27;45406;-77
2023/12/13 01:06:31;;;;;;;;;5.00;3.67;;;;;;;;5095022;27;45900;-77
2023/12/13 01:08:56;;;;;;;;;3.00;2.67;;;;;;;;5078995;27;46196;-77
2023/12/13 01:11:24;;;;;;;;;2.00;2.00;;;;;;;;5078353;27;45380;-77
2023/12/13 01:13:49;;;;;;;;;2.33;2.33;;;;;;;;5079166;28;45314;-77
2023/12/13 01:16:14;;;;;;;;;3.67;3.67;;;;;;;;5078298;28;45439;-77
2023/12/13 01:18:40;;;;;;;;;2.33;2.00;;;;;;;;5078540;28;45502;-77
2023/12/13 01:21:05;;;;;;;;;3.00;3.00;;;;;;;;5079593;28;45391;-76
2023/12/13 01:23:30;;;;;;;;;2.00;2.00;;;;;;;;5079772;28;45316;-77
2023/12/13 01:25:55;;;;;;;;;2.33;2.00;;;;;;;;5079459;28;45399;-77
2023/12/13 01:28:20;;;;;;;;;3.33;3.33;;;;;;;;5077815;28;47239;-76
2023/12/13 01:30:46;;;;;;;;;3.33;3.33;;;;;;;;5061220;28;45362;-77
2023/12/13 01:33:11;;;;;;;;;2.67;2.67;;;;;;;;5079393;28;45346;-76
2023/12/13 01:35:36;;;;;;;;;3.00;3.00;;;;;;;;5082550;28;45228;-77
2023/12/13 01:38:01;;;;;;;;;4.33;2.00;;;;;;;;5081690;28;48053;-77
2023/12/13 01:40:26;;;;;;;;;3.00;1.00;;;;;;;;5083149;28;45162;-77
2023/12/13 01:42:51;;;;;;;;;3.00;3.00;;;;;;;;5082947;28;45440;-77
2023/12/13 01:45:17;;;;;;;;;2.33;2.33;;;;;;;;5082890;28;45221;-77
2023/12/13 01:47:42;;;;;;;;;2.00;1.67;;;;;;;;5081164;28;47306;-77
2023/12/13 01:50:07;;;;;;;;;5.00;2.33;;;;;;;;5081254;28;45780;-77
2023/12/13 01:52:33;;;;;;;;;1.00;1.00;;;;;;;;5082981;28;45295;-77
2023/12/13 01:54:58;;;;;;;;;4.33;4.33;;;;;;;;5064201;28;46106;-77
2023/12/13 01:57:23;;;;;;;;;2.67;2.00;;;;;;;;5082265;28;46123;-77
2023/12/13 01:59:49;;;;;;;;;6.00;4.33;;;;;;;;5081006;28;45331;-77
2023/12/13 02:02:14;;;;;;;;;2.33;2.00;;;;;;;;5074533;28;45352;-77
2023/12/13 02:04:40;;;;;;;;;1.67;1.67;;;;;;;;5063994;28;47030;-77
2023/12/13 02:07:05;;;;;;;;;1.33;1.33;;;;;;;;5064058;28;47393;-77
2023/12/13 02:09:31;;;;;;;;;3.67;2.00;;;;;;;;5082561;28;45376;-77
2023/12/13 02:11:56;;;;;;;;;3.00;2.00;;;;;;;;5082591;28;45555;-77
2023/12/13 02:14:22;;;;;;;;;1.00;1.00;;;;;;;;5063710;28;45956;-77
2023/12/13 02:16:47;;;;;;;;;2.00;2.00;;;;;;;;5064183;28;48454;-78
2023/12/13 02:19:12;;;;;;;;;4.00;2.00;;;;;;;;5082184;28;45318;-77
2023/12/13 02:21:37;;;;;;;;;2.33;1.33;;;;;;;;5064266;28;45507;-77
2023/12/13 02:24:03;;;;;;;;;3.00;3.00;;;;;;;;5082405;28;45287;-77
2023/12/13 02:26:29;;;;;;;;;0.67;0.67;;;;;;;;5064005;28;47870;-77
2023/12/13 02:28:54;;;;;;;;;3.67;3.33;;;;;;;;5063852;28;45261;-77
2023/12/13 02:31:20;;;;;;;;;4.00;2.00;;;;;;;;5064121;28;45396;-77
2023/12/13 02:33:45;;;;;;;;;2.00;2.00;;;;;;;;5081908;28;45498;-77
2023/12/13 02:36:10;;;;;;;;;2.00;2.00;;;;;;;;5063884;28;47475;-77
2023/12/13 02:38:35;;;;;;;;;3.00;2.00;;;;;;;;5063714;28;45385;-77
2023/12/13 02:41:00;;;;;;;;;2.00;2.00;;;;;;;;5081102;27;45510;-77
2023/12/13 02:43:27;;;;;;;;;3.00;1.67;;;;;;;;5080233;28;45335;-77
2023/12/13 02:45:53;;;;;;;;;3.67;2.00;;;;;;;;5080591;28;45285;-77
2023/12/13 02:48:18;;;;;;;;;3.33;3.33;;;;;;;;5080731;28;45400;-77
2023/12/13 02:50:43;;;;;;;;;1.00;1.00;;;;;;;;5080580;28;45342;-76
2023/12/13 02:53:08;;;;;;;;;5.67;3.67;;;;;;;;5081953;28;45286;-77
2023/12/13 02:55:33;;;;;;;;;6.00;3.33;;;;;;;;5080724;28;46187;-77
2023/12/13 02:57:59;;;;;;;;;3.00;3.00;;;;;;;;5081684;28;45468;-77
2023/12/13 03:00:24;;;;;;;;;2.00;2.00;;;;;;;;5097641;27;45338;-78
2023/12/13 03:02:49;;;;;;;;;3.33;2.67;;;;;;;;5081667;27;45373;-77
2023/12/13 03:05:15;;;;;;;;;1.00;1.00;;;;;;;;5081645;27;46324;-77
2023/12/13 03:07:40;;;;;;;;;2.00;2.00;;;;;;;;5081705;27;45295;-77
2023/12/13 03:10:05;;;;;;;;;3.00;3.00;;;;;;;;5097613;27;45469;-77
2023/12/13 03:12:31;;;;;;;;;3.00;1.67;;;;;;;;5081697;28;45352;-77
2023/12/13 03:14:56;;;;;;;;;1.00;1.00;;;;;;;;5081263;28;45380;-78
2023/12/13 03:17:21;;;;;;;;;2.00;2.00;;;;;;;;5081473;27;45386;-78
2023/12/13 03:19:46;;;;;;;;;4.67;2.00;;;;;;;;5097303;27;45381;-77
2023/12/13 03:22:11;;;;;;;;;2.33;1.67;;;;;;;;5081442;27;45276;-78
2023/12/13 03:24:37;;;;;;;;;5.00;1.00;;;;;;;;5097095;27;48043;-77
2023/12/13 03:27:02;;;;;;;;;3.00;1.33;;;;;;;;5080196;28;45329;-77
2023/12/13 03:29:27;;;;;;;;;3.00;2.00;;;;;;;;5080040;28;45350;-78
2023/12/13 03:31:52;;;;;;;;;2.00;2.00;;;;;;;;5096999;27;45833;-77
2023/12/13 03:34:18;;;;;;;;;3.00;2.00;;;;;;;;5080996;27;46456;-77
2023/12/13 03:36:43;;;;;;;;;1.00;1.00;;;;;;;;5081308;27;45421;-78
2023/12/13 03:39:08;;;;;;;;;3.33;2.33;;;;;;;;5081426;27;45358;-77
2023/12/13 03:41:34;;;;;;;;;2.00;2.00;;;;;;;;5081173;27;45296;-77
2023/12/13 03:43:59;;;;;;;;;0.67;0.33;;;;;;;;5081073;27;45412;-77
2023/12/13 03:46:24;;;;;;;;;1.00;1.00;;;;;;;;5096806;27;45989;-77
2023/12/13 03:48:49;;;;;;;;;1.00;1.00;;;;;;;;5080493;28;45158;-77
2023/12/13 03:51:14;;;;;;;;;1.00;1.00;;;;;;;;5081024;27;45306;-77
2023/12/13 03:53:42;;;;;;;;;2.00;2.00;;;;;;;;5080937;27;45237;-77
2023/12/13 03:56:07;;;;;;;;;1.00;1.00;;;;;;;;5079519;28;45359;-77
2023/12/13 03:58:32;;;;;;;;;2.67;2.00;;;;;;;;5080476;27;45177;-77
2023/12/13 04:00:59;;;;;;;;;3.00;1.00;;;;;;;;5080912;28;45206;-78
2023/12/13 04:03:24;;;;;;;;;2.00;2.00;;;;;;;;5062130;28;47147;-77
2023/12/13 04:05:49;;;;;;;;;2.00;1.67;;;;;;;;5062406;28;45353;-78
2023/12/13 04:08:14;;;;;;;;;2.33;1.67;;;;;;;;5080992;28;45351;-78
2023/12/13 04:10:39;;;;;;;;;2.00;1.00;;;;;;;;5080557;28;45355;-77
2023/12/13 04:13:05;;;;;;;;;2.33;1.67;;;;;;;;5080692;28;45401;-78
2023/12/13 04:15:30;;;;;;;;;3.00;3.00;;;;;;;;5079936;28;45428;-77
2023/12/13 04:17:55;;;;;;;;;2.33;2.33;;;;;;;;5080547;28;45275;-77
2023/12/13 04:20:20;;;;;;;;;1.00;1.00;;;;;;;;5080498;28;45427;-77
2023/12/13 04:22:47;;;;;;;;;2.00;1.67;;;;;;;;5080430;28;46168;-78
2023/12/13 04:25:12;;;;;;;;;1.67;1.67;;;;;;;;5080449;28;45314;-77
2023/12/13 04:27:37;;;;;;;;;2.67;1.67;;;;;;;;5080560;28;45418;-78
2023/12/13 04:30:02;;;;;;;;;2.00;2.00;;;;;;;;5061928;28;46349;-77
2023/12/13 04:32:28;;;;;;;;;3.33;2.33;;;;;;;;5080136;28;45457;-77
2023/12/13 04:34:53;;;;;;;;;1.00;1.00;;;;;;;;5080303;28;45343;-77
2023/12/13 04:37:19;;;;;;;;;2.00;2.00;;;;;;;;5062247;28;45448;-77
2023/12/13 04:39:45;;;;;;;;;2.00;1.00;;;;;;;;5080258;28;45581;-77
2023/12/13 04:42:10;;;;;;;;;1.67;1.67;;;;;;;;5079843;28;45265;-78
2023/12/13 04:44:35;;;;;;;;;3.00;2.00;;;;;;;;5080176;28;45290;-77
2023/12/13 04:47:00;;;;;;;;;2.00;2.00;;;;;;;;5080067;28;45230;-77
2023/12/13 04:49:25;;;;;;;;;2.33;2.33;;;;;;;;5079710;28;45269;-77
2023/12/13 04:51:51;;;;;;;;;1.67;1.00;;;;;;;;5079950;28;45158;-77
2023/12/13 04:54:16;;;;;;;;;3.33;2.00;;;;;;;;5080072;28;45142;-77
2023/12/13 04:56:41;;;;;;;;;3.67;1.00;;;;;;;;5080139;28;45633;-78
2023/12/13 04:59:07;;;;;;;;;4.33;2.67;;;;;;;;5095695;27;45840;-77
2023/12/13 05:01:32;;;;;;;;;3.00;1.00;;;;;;;;5080043;27;45713;-78
2023/12/13 05:03:57;;;;;;;;;2.00;2.00;;;;;;;;5079614;27;45705;-77
2023/12/13 05:06:22;;;;;;;;;2.67;1.67;;;;;;;;5080167;27;45151;-78
2023/12/13 05:08:47;;;;;;;;;2.33;1.33;;;;;;;;5077960;28;47438;-77
2023/12/13 05:11:13;;;;;;;;;3.00;2.00;;;;;;;;5079775;27;45350;-77
2023/12/13 05:13:38;;;;;;;;;2.00;1.00;;;;;;;;5079933;28;45282;-77
2023/12/13 05:16:03;;;;;;;;;1.33;0.67;;;;;;;;5079939;27;45304;-78
2023/12/13 05:18:28;;;;;;;;;1.00;1.00;;;;;;;;5079540;27;45304;-77
2023/12/13 05:20:54;;;;;;;;;4.33;1.33;;;;;;;;5079025;27;45321;-78
2023/12/13 05:23:19;;;;;;;;;2.00;1.67;;;;;;;;5061264;28;45418;-77
2023/12/13 05:25:44;;;;;;;;;3.00;1.67;;;;;;;;5079112;28;45508;-78
2023/12/13 05:28:09;;;;;;;;;2.00;1.33;;;;;;;;5078325;28;45358;-77
2023/12/13 05:30:34;;;;;;;;;2.00;2.00;;;;;;;;5079505;28;45342;-77
2023/12/13 05:32:59;;;;;;;;;3.67;2.00;;;;;;;;5079442;28;45243;-78
2023/12/13 05:35:25;;;;;;;;;5.67;2.67;;;;;;;;5078129;28;45504;-77
2023/12/13 05:37:50;;;;;;;;;3.33;2.33;;;;;;;;5061423;28;47330;-77
2023/12/13 05:40:15;;;;;;;;;2.00;2.00;;;;;;;;5079232;28;46056;-77
2023/12/13 05:42:40;;;;;;;;;2.67;0.67;;;;;;;;5060791;28;45282;-77
2023/12/13 05:45:05;;;;;;;;;1.33;1.33;;;;;;;;5079483;28;45370;-78
2023/12/13 05:47:31;;;;;;;;;3.00;2.00;;;;;;;;5079030;28;45306;-77
2023/12/13 05:49:56;;;;;;;;;3.00;3.00;;;;;;;;5078781;28;45366;-77
2023/12/13 05:52:22;;;;;;;;;2.33;2.00;;;;;;;;5077928;28;45352;-77
2023/12/13 05:54:47;;;;;;;;;3.00;2.00;;;;;;;;5079260;28;45346;-77
2023/12/13 05:57:12;;;;;;;;;2.00;2.00;;;;;;;;5079111;28;45462;-77
2023/12/13 05:59:37;;;;;;;;;2.00;2.00;;;;;;;;5094895;27;47266;-77
2023/12/13 06:02:03;;;;;;;;;1.00;1.00;;;;;;;;5078990;27;45286;-77
2023/12/13 06:04:28;;;;;;;;;5.00;2.00;;;;;;;;5079218;27;45908;-77
2023/12/13 06:06:53;;;;;;;;;2.67;1.00;;;;;;;;5094792;27;46187;-77
2023/12/13 06:09:18;;;;;;;;;3.67;3.00;;;;;;;;5094576;27;47501;-77
2023/12/13 06:11:43;;;;;;;;;2.33;2.33;;;;;;;;5079198;27;45385;-78
2023/12/13 06:14:09;;;;;;;;;2.67;2.67;;;;;;;;5094787;27;45276;-77
2023/12/13 06:16:34;;;;;;;;;4.67;1.00;;;;;;;;5079018;28;45350;-78
2023/12/13 06:18:59;;;;;;;;;1.67;1.33;;;;;;;;5078649;27;45337;-77
2023/12/13 06:21:25;;;;;;;;;0.33;0.33;;;;;;;;5096015;27;45346;-77
2023/12/13 06:23:50;;;;;;;;;2.33;1.00;;;;;;;;5098297;27;45582;-77
2023/12/13 06:26:15;;;;;;;;;2.33;2.33;;;;;;;;5098016;27;47114;-77
2023/12/13 06:28:40;;;;;;;;;0.33;0.33;;;;;;;;5082227;27;45575;-77
2023/12/13 06:31:06;;;;;;;;;3.00;2.00;;;;;;;;5082390;27;45349;-77
2023/12/13 06:33:31;;;;;;;;;2.00;2.00;;;;;;;;5097812;27;45325;-78
2023/12/13 06:35:56;;;;;;;;;3.00;2.00;;;;;;;;5097833;27;45868;-77
2023/12/13 06:38:21;;;;;;;;;3.00;3.00;;;;;;;;5082111;27;46274;-78
2023/12/13 06:40:46;;;;;;;;;2.33;2.00;;;;;;;;5082218;28;45264;-77
2023/12/13 06:43:11;;;;;;;;;2.00;1.00;;;;;;;;5082092;27;45265;-77
2023/12/13 06:45:37;;;;;;;;;2.00;2.00;;;;;;;;5079106;28;47501;-76
2023/12/13 06:48:02;;;;;;;;;2.00;1.00;;;;;;;;5080584;28;45318;-77
2023/12/13 06:50:28;;;;;;;;;1.33;1.33;;;;;;;;5080692;28;45367;-78
2023/12/13 06:52:54;;;;;;;;;2.00;2.00;;;;;;;;5080529;28;45322;-76
2023/12/13 06:55:19;;;;;;;;;4.00;1.33;;;;;;;;5081214;28;45373;-77
2023/12/13 06:57:45;;;;;;;;;1.00;1.00;;;;;;;;5080798;28;45964;-77
2023/12/13 07:00:10;;;;;;;;;3.00;3.00;;;;;;;;5080115;28;46028;-78
2023/12/13 07:02:36;;;;;;;;;2.00;2.00;;;;;;;;5080632;28;45510;-77
2023/12/13 07:05:01;;;;;;;;;1.33;1.33;;;;;;;;5080774;28;45427;-77
2023/12/13 07:07:26;;;;;;;;;4.33;2.00;;;;;;;;5062521;28;48252;-77
2023/12/13 07:09:51;;;;;;;;;4.00;2.00;;;;;;;;5080771;28;45410;-77
2023/12/13 07:12:17;;;;;;;;;2.00;2.00;;;;;;;;5080916;28;45298;-77
2023/12/13 07:14:42;;;;;;;;;2.00;2.00;;;;;;;;5080677;28;45347;-77
2023/12/13 07:17:07;;;;;;;;;2.33;2.33;;;;;;;;5080518;28;46438;-77
2023/12/13 07:19:32;;;;;;;;;4.67;4.67;;;;;;;;5062336;28;45311;-77
2023/12/13 07:21:58;;;;;;;;;8.00;7.00;;;;;;;;5080454;28;45228;-76
2023/12/13 07:24:23;;;;;;;;;9.00;9.00;;;;;;;;5079236;28;46446;-76
2023/12/13 07:26:48;;;;;;;;;10.67;10.67;;;;;;;;5079994;28;45267;-76
2023/12/13 07:29:14;;;;;;;;;10.67;8.00;;;;;;;;5079195;28;45317;-77
2023/12/13 07:31:41;;;;;;;;;5.00;4.00;;;;;;;;5080231;28;45325;-77
2023/12/13 07:34:10;;;;;;;;;10.67;10.33;;;;;;;;5080173;28;45350;-77
2023/12/13 07:36:36;;;;;;;;;6.67;6.67;;;;;;;;5080490;28;45426;-77
2023/12/13 07:39:02;;;;;;;;;9.00;9.00;;;;;;;;5080180;28;45401;-78
2023/12/13 07:41:28;;;;;;;;;8.00;4.67;;;;;;;;5072757;28;45331;-75
2023/12/13 07:43:53;;;;;;;;;5.33;5.33;;;;;;;;5078779;28;45497;-77
2023/12/13 07:46:18;;;;;;;;;4.67;4.67;;;;;;;;5077999;28;46987;-77
2023/12/13 07:48:43;;;;;;;;;5.33;5.33;;;;;;;;5079421;28;45331;-77
2023/12/13 07:51:09;;;;;;;;;5.00;5.00;;;;;;;;5080038;28;45323;-77
2023/12/13 07:53:34;;;;;;;;;6.00;6.00;;;;;;;;5079754;28;45469;-78
2023/12/13 07:55:59;;;;;;;;;2.67;2.67;;;;;;;;5077769;28;48361;-77
2023/12/13 07:58:24;;;;;;;;;4.00;2.50;;;;;;;;5083093;27;46088;-77
2023/12/13 08:00:50;;;;;;;;;6.67;6.67;;;;;;;;5080078;28;45222;-76
2023/12/13 08:03:15;;;;;;;;;8.33;8.00;;;;;;;;5078289;28;45308;-78
2023/12/13 08:05:40;;;;;;;;;5.33;5.33;;;;;;;;5079874;28;46036;-78
2023/12/13 08:08:05;;;;;;;;;5.33;3.67;;;;;;;;5061547;28;45368;-77
2023/12/13 08:10:30;;;;;;;;;5.00;4.67;;;;;;;;5079701;28;45342;-77
2023/12/13 08:12:56;;;;;;;;;4.00;4.00;;;;;;;;5060143;28;46315;-77
2023/12/13 08:15:21;;;;;;;;;4.33;4.00;;;;;;;;5079706;28;46432;-77
2023/12/13 08:17:46;;;;;;;;;5.00;5.00;;;;;;;;5079530;28;45297;-77
2023/12/13 08:20:11;;;;;;;;;8.00;6.33;;;;;;;;5079350;28;45520;-77
2023/12/13 08:22:37;;;;;;;;;6.67;6.00;;;;;;;;5079266;28;45458;-77
2023/12/13 08:25:03;;;;;;;;;10.33;9.00;;;;;;;;5061303;28;47304;-77
2023/12/13 08:27:28;;;;;;;;;7.00;5.50;;;;;;;;5077324;28;45492;-77
2023/12/13 08:29:53;;;;;;;;;9.00;8.67;;;;;;;;5079565;28;45223;-78
2023/12/13 08:32:19;;;;;;;;;13.67;9.67;;;;;;;;5077061;28;46213;-77
2023/12/13 08:34:44;;;;;;;;;8.33;7.00;;;;;;;;5079442;28;45594;-76
2023/12/13 08:37:09;;;;;;;;;10.67;10.00;;;;;;;;5079155;28;45324;-76
2023/12/13 08:39:34;;;;;;;;;10.00;9.00;;;;;;;;5076824;28;45441;-80
2023/12/13 08:42:00;;;;;;;;;9.67;9.67;;;;;;;;5069505;28;45446;-77
2023/12/13 08:44:25;;;;;;;;;9.67;9.67;;;;;;;;5075956;28;45583;-76
2023/12/13 08:46:50;;;;;;;;;10.00;7.67;;;;;;;;5078764;28;45377;-76
2023/12/13 08:49:15;;;;;;;;;9.67;8.33;;;;;;;;5060475;28;45463;-76
2023/12/13 08:51:41;;;;;;;;;7.33;7.00;;;;;;;;5077237;28;46189;-76
2023/12/13 08:54:06;;;;;;;;;10.00;10.00;;;;;;;;5078831;28;46718;-77
2023/12/13 08:56:31;;;;;;;;;9.00;9.00;;;;;;;;5076374;27;45477;-76
2023/12/13 08:58:56;;;;;;;;;9.67;7.33;;;;;;;;5077626;27;45433;-77
2023/12/13 09:01:22;;;;;;;;;7.33;6.33;;;;;;;;5077761;28;45862;-77
2023/12/13 09:03:47;;;;;;;;;10.00;7.67;;;;;;;;5059328;28;47239;-78
2023/12/13 09:06:13;;;;;;;;;9.67;9.67;;;;;;;;5078425;28;45549;-78
2023/12/13 09:08:38;;;;;;;;;9.67;9.00;;;;;;;;5078672;28;45576;-78
2023/12/13 09:11:03;;;;;;;;;11.00;9.33;;;;;;;;5059137;28;47274;-78
2023/12/13 09:13:28;;;;;;;;;9.00;8.00;;;;;;;;5077462;28;45585;-79
2023/12/13 09:15:54;;;;;;;;;6.67;6.67;;;;;;;;5078014;28;45457;-78
2023/12/13 09:18:19;;;;;;;;;6.67;6.67;;;;;;;;5078448;28;45359;-77
2023/12/13 09:20:45;;;;;;;;;6.00;6.00;;;;;;;;5077674;28;47043;-77
2023/12/13 09:23:19;;;;;;;;;8.33;8.00;;;;;;;;5079217;28;45272;-77
2023/12/13 09:25:44;;;;;;;;;8.00;7.67;;;;;;;;5077963;28;45897;-77
2023/12/13 09:28:10;;;;;;;;;8.00;7.00;;;;;;;;5060311;28;45417;-77
2023/12/13 09:30:35;;;;;;;;;7.67;6.33;;;;;;;;5077213;28;45961;-76
2023/12/13 09:33:01;;;;;;;;;8.00;7.00;;;;;;;;5078044;28;45667;-77
2023/12/13 09:35:26;;;;;;;;;7.67;7.67;;;;;;;;5077077;28;45461;-76
2023/12/13 09:37:51;;;;;;;;;5.00;5.00;;;;;;;;5072454;28;45631;-77
2023/12/13 09:40:17;;;;;;;;;5.67;5.67;;;;;;;;5078027;28;45538;-77
2023/12/13 09:42:44;;;;;;;;;6.33;6.33;;;;;;;;5076059;28;47249;-77
2023/12/13 09:45:10;;;;;;;;;5.33;5.33;;;;;;;;5078115;28;45530;-76
2023/12/13 09:47:36;;;;;;;;;7.33;5.00;;;;;;;;5078356;28;45524;-77
2023/12/13 09:50:01;;;;;;;;;6.00;6.00;;;;;;;;5073163;27;46782;-78
2023/12/13 09:52:29;;;;;;;;;5.00;5.00;;;;;;;;5056299;28;48139;-78
2023/12/13 09:54:55;;;;;;;;;5.00;5.00;;;;;;;;5057047;28;45414;-77
2023/12/13 09:57:20;;;;;;;;;10.33;9.67;;;;;;;;5060420;28;45440;-77
2023/12/13 09:59:46;;;;;;;;;14.33;13.00;;;;;;;;5061669;28;45345;-77
2023/12/13 10:02:12;;;;;;;;;13.67;11.33;;;;;;;;5061161;28;45378;-76
2023/12/13 10:04:38;;;;;;;;;10.67;10.67;;;;;;;;5076178;28;45270;-77
2023/12/13 10:07:04;;;;;;;;;6.67;6.00;;;;;;;;5060693;28;45447;-77
2023/12/13 10:09:30;;;;;;;;;13.00;13.00;;;;;;;;5059506;28;46398;-77
2023/12/13 10:11:55;;;;;;;;;11.67;10.67;;;;;;;;5076303;28;47053;-76
2023/12/13 10:14:21;;;;;;;;;8.67;7.67;;;;;;;;5075765;28;45389;-77
2023/12/13 10:16:46;;;;;;;;;9.33;9.33;;;;;;;;5061338;28;45660;-77
2023/12/13 10:19:11;;;;;;;;;11.33;10.00;;;;;;;;5061013;28;45429;-77
2023/12/13 10:21:36;;;;;;;;;6.33;6.33;;;;;;;;5060636;28;45329;-77
2023/12/13 10:24:03;;;;;;;;;10.33;7.67;;;;;;;;5059551;28;45368;-78
2023/12/13 10:26:32;;;;;;;;;8.00;7.67;;;;;;;;5061279;28;45244;-78
2023/12/13 10:28:59;;;;;;;;;5.33;5.33;;;;;;;;5060516;28;45552;-79
2023/12/13 10:31:25;;;;;;;;;8.67;6.67;;;;;;;;5059070;28;46437;-76
2023/12/13 10:33:50;;;;;;;;;11.67;10.33;;;;;;;;5059027;28;45809;-78
2023/12/13 10:36:16;;;;;;;;;7.67;7.00;;;;;;;;5056150;28;45358;-79
2023/12/13 10:38:44;;;;;;;;;13.00;11.67;;;;;;;;5052184;28;45368;-78
2023/12/13 10:41:12;;;;;;;;;8.00;7.00;;;;;;;;5059600;28;45312;-77
2023/12/13 10:43:39;;;;;;;;;4.67;4.67;;;;;;;;5059258;28;45524;-77
2023/12/13 10:46:04;;;;;;;;;8.00;8.00;;;;;;;;5060789;28;45292;-77
2023/12/13 10:48:35;;;;;;;;;9.00;9.00;;;;;;;;5058951;28;46946;-77
2023/12/13 10:51:02;;;;;;;;;12.33;12.33;;;;;;;;5081056;28;45402;-77
2023/12/13 10:53:30;;;;;;;;;11.00;10.00;;;;;;;;5080489;28;45411;-76
2023/12/13 10:55:56;;;;;;;;;8.00;8.00;;;;;;;;5063029;28;45334;-76
2023/12/13 10:58:21;;;;;;;;;12.00;12.00;;;;;;;;5079675;28;45430;-79
2023/12/13 11:00:48;;;;;;;;;3.33;2.67;;;;;;;;5080053;28;48240;-79
2023/12/13 11:03:16;;;;;;;;;10.33;9.33;;;;;;;;5081903;28;45303;-80
2023/12/13 11:05:42;;;;;;;;;4.67;4.00;;;;;;;;5063186;28;45322;-79
2023/12/13 11:08:17;;;;;;;;;4.67;4.67;;;;;;;;5080162;28;45220;-78
2023/12/13 11:11:02;;;;;;;;;5.00;5.00;;;;;;;;5081423;28;45307;-78
2023/12/13 11:13:28;;;;;;;;;5.33;3.33;;;;;;;;5080476;28;45261;-78
2023/12/13 11:15:53;;;;;;;;;5.67;4.00;;;;;;;;5081424;28;45480;-77
2023/12/13 11:18:19;;;;;;;;;3.33;2.00;;;;;;;;5061782;28;46936;-77
2023/12/13 11:20:48;;;;;;;;;5.33;5.00;;;;;;;;5080343;28;45415;-78
2023/12/13 11:23:16;;;;;;;;;5.00;5.00;;;;;;;;5081207;28;45454;-77
2023/12/13 11:25:44;;;;;;;;;6.00;6.00;;;;;;;;5079838;28;45332;-77
2023/12/13 11:28:18;;;;;;;;;5.00;3.67;;;;;;;;5081204;28;45264;-77
2023/12/13 11:30:44;;;;;;;;;5.67;5.00;;;;;;;;5062419;28;47537;-76
2023/12/13 11:33:10;;;;;;;;;4.33;4.00;;;;;;;;5080946;28;45484;-77
2023/12/13 11:35:35;;;;;;;;;8.00;8.00;;;;;;;;5082192;28;45550;-77
2023/12/13 11:38:02;;;;;;;;;5.00;4.67;;;;;;;;5083756;28;45311;-76
2023/12/13 11:40:27;;;;;;;;;10.00;9.67;;;;;;;;5079727;28;47195;-76
2023/12/13 11:42:53;;;;;;;;;2.33;2.33;;;;;;;;5080698;28;45338;-77
2023/12/13 11:45:19;;;;;;;;;4.33;4.33;;;;;;;;5062687;28;45309;-77
2023/12/13 11:47:46;;;;;;;;;2.33;2.33;;;;;;;;5062976;28;46848;-78
2023/12/13 11:50:11;;;;;;;;;6.33;5.33;;;;;;;;5083217;28;45492;-78
2023/12/13 11:52:36;;;;;;;;;5.00;3.33;;;;;;;;5081470;28;45232;-76
2023/12/13 11:55:02;;;;;;;;;4.00;4.00;;;;;;;;5080444;28;45457;-78
2023/12/13 11:57:28;;;;;;;;;6.00;4.67;;;;;;;;5079187;27;46848;-78
2023/12/13 11:59:53;;;;;;;;;5.00;5.00;;;;;;;;5079398;28;45460;-78
2023/12/13 12:02:20;;;;;;;;;3.67;3.67;;;;;;;;5078729;28;45185;-77
2023/12/13 12:04:45;;;;;;;;;7.00;6.00;;;;;;;;5079748;28;45397;-78
2023/12/13 12:07:14;;;;;;;;;7.00;6.67;;;;;;;;5061899;28;46422;-78
2023/12/13 12:09:40;;;;;;;;;7.33;6.67;;;;;;;;5079061;28;49602;-79
2023/12/13 12:12:05;;;;;;;;;8.00;8.00;;;;;;;;5080683;28;45227;-78
2023/12/13 12:14:31;;;;;;;;;7.00;7.00;;;;;;;;5080285;28;45217;-77
2023/12/13 12:16:57;;;;;;;;;7.00;7.00;;;;;;;;5080309;28;45265;-78
2023/12/13 12:19:22;;;;;;;;;4.67;4.33;;;;;;;;5078329;28;45405;-77
2023/12/13 12:21:47;;;;;;;;;5.00;5.00;;;;;;;;5080447;28;45252;-77
2023/12/13 12:24:13;;;;;;;;;4.00;4.00;;;;;;;;5062344;28;45566;-76
2023/12/13 12:26:38;;;;;;;;;4.00;4.00;;;;;;;;5080277;28;45429;-76
2023/12/13 12:29:03;;;;;;;;;6.33;6.00;;;;;;;;5080175;28;46532;-78
2023/12/13 12:31:30;;;;;;;;;5.33;5.33;;;;;;;;5062002;28;45666;-79
2023/12/13 12:33:55;;;;;;;;;6.33;6.33;;;;;;;;5080114;28;45326;-78
2023/12/13 12:36:21;;;;;;;;;6.00;5.33;;;;;;;;5061770;28;46127;-77
2023/12/13 12:38:47;;;;;;;;;7.00;6.67;;;;;;;;5061838;28;46732;-78
2023/12/13 12:41:13;;;;;;;;;7.00;7.00;;;;;;;;5079891;28;45397;-77
2023/12/13 12:43:39;;;;;;;;;7.67;6.67;;;;;;;;5080017;28;45340;-78
2023/12/13 12:46:05;;;;;;;;;5.00;5.00;;;;;;;;5079641;28;46440;-77
2023/12/13 12:48:30;;;;;;;;;5.33;5.33;;;;;;;;5079176;28;46108;-77
2023/12/13 12:51:09;;;;;;;;;6.33;6.33;;;;;;;;5079899;28;45195;-78
2023/12/13 12:53:35;;;;;;;;;7.00;6.00;;;;;;;;5080101;28;45547;-77
2023/12/13 12:56:12;;;;;;;;;12.00;8.00;;;;;;;;5081693;28;45434;-76
2023/12/13 12:58:43;;;;;;;;;7.33;7.00;;;;;;;;5086245;28;45480;-77
2023/12/13 13:01:08;;;;;;;;;5.00;5.00;;;;;;;;5097864;27;45472;-76
2023/12/13 13:03:34;;;;;;;;;6.00;5.50;;;;;;;;5097293;27;45216;-76
2023/12/13 13:06:00;;;;;;;;;6.67;5.00;;;;;;;;5091554;27;45262;-77
2023/12/13 13:08:27;;;;;;;;;4.00;4.00;;;;;;;;5083523;28;48404;-76
2023/12/13 13:10:53;;;;;;;;;7.00;6.00;;;;;;;;5083967;28;45396;-77
2023/12/13 13:13:18;;;;;;;;;7.00;7.00;;;;;;;;5086353;28;45309;-76
2023/12/13 13:15:44;;;;;;;;;5.33;5.33;;;;;;;;5084889;28;45421;-78
2023/12/13 13:18:09;;;;;;;;;5.00;5.00;;;;;;;;5065875;28;48033;-76
2023/12/13 13:20:34;;;;;;;;;6.67;5.00;;;;;;;;5087001;28;45395;-76
2023/12/13 13:23:00;;;;;;;;;6.33;6.33;;;;;;;;5085726;28;45254;-77
2023/12/13 13:25:25;;;;;;;;;11.33;11.33;;;;;;;;5083126;28;45720;-78
2023/12/13 13:28:10;;;;;;;;;11.00;9.33;;;;;;;;5088321;28;46421;-77
2023/12/13 13:30:35;;;;;;;;;10.33;10.33;;;;;;;;5087006;28;45331;-76
2023/12/13 13:33:03;;;;;;;;;5.33;5.33;;;;;;;;5069147;28;45345;-77
2023/12/13 13:35:28;;;;;;;;;17.67;15.00;;;;;;;;5093216;28;45228;-76
2023/12/13 13:37:54;;;;;;;;;11.67;11.33;;;;;;;;5092245;28;45297;-77
2023/12/13 13:40:21;;;;;;;;;14.00;12.00;;;;;;;;5093556;28;45440;-78
2023/12/13 13:42:46;;;;;;;;;11.00;10.00;;;;;;;;5071961;28;45682;-77
2023/12/13 13:45:11;;;;;;;;;9.00;9.00;;;;;;;;5074682;28;45889;-78
2023/12/13 13:47:36;;;;;;;;;10.00;9.00;;;;;;;;5092922;28;45278;-77
2023/12/13 13:50:03;;;;;;;;;11.00;9.67;;;;;;;;5065067;28;45813;-77
2023/12/13 13:52:29;;;;;;;;;13.00;13.00;;;;;;;;5071032;28;46489;-77
2023/12/13 13:54:54;;;;;;;;;52.25;44.00;;;;;;;;5081783;28;46119;-78
2023/12/13 13:57:19;;;;;;;;;16.33;15.00;;;;;;;;5059746;28;45479;-80
2023/12/13 13:59:44;;;;;;;;;9.00;8.00;;;;;;;;5064256;28;45396;-80
2023/12/13 14:02:15;;;;;;;;;13.00;11.00;;;;;;;;5076831;28;45588;-79
2023/12/13 14:04:40;;;;;;;;;9.00;9.00;;;;;;;;5063816;28;45504;-79
2023/12/13 14:07:05;;;;;;;;;11.33;11.33;;;;;;;;5065837;28;46391;-79
2023/12/13 14:09:33;;;;;;;;;14.33;12.33;;;;;;;;5063924;28;45425;-79
2023/12/13 14:11:58;;;;;;;;;11.00;10.00;;;;;;;;5067950;28;45385;-80
2023/12/13 14:14:23;;;;;;;;;10.00;10.00;;;;;;;;5082578;28;46976;-79
2023/12/13 14:16:48;;;;;;;;;9.67;9.00;;;;;;;;5067062;28;46656;-79
2023/12/13 14:19:13;;;;;;;;;9.00;9.00;;;;;;;;5082810;28;45475;-80
2023/12/13 14:21:39;;;;;;;;;12.00;12.00;;;;;;;;5069015;28;45374;-79
2023/12/13 14:24:04;;;;;;;;;10.00;8.67;;;;;;;;5068714;28;45371;-79
2023/12/13 14:26:29;;;;;;;;;9.67;8.67;;;;;;;;5069502;28;45413;-79
2023/12/13 14:28:54;;;;;;;;;8.00;8.00;;;;;;;;5069950;28;45283;-79
2023/12/13 14:31:20;;;;;;;;;8.67;8.67;;;;;;;;5085285;28;45312;-79